createdAt,value
2017-10-13T00:01:53.561Z,101708
2017-10-13T00:04:20.554Z,101710
2017-10-13T00:06:46.774Z,101710
2017-10-13T00:09:13.022Z,101710
2017-10-13T00:11:40.041Z,101711
2017-10-13T00:14:06.271Z,101714
2017-10-13T00:16:32.576Z,101722
2017-10-13T00:18:59.545Z,101727
2017-10-13T00:21:25.786Z,101722
2017-10-13T00:23:52.070Z,101725
2017-10-13T00:26:19.050Z,101727
2017-10-13T00:28:45.279Z,101735
2017-10-13T00:31:11.540Z,101732
2017-10-13T00:33:37.786Z,101729
2017-10-13T00:36:04.330Z,101730
2017-10-13T00:38:31.322Z,101732
2017-10-13T00:40:57.544Z,101732
2017-10-13T00:43:24.009Z,101730
2017-10-13T00:45:50.563Z,101721
2017-10-13T00:48:16.806Z,101729
2017-10-13T00:50:43.835Z,101724
2017-10-13T00:53:10.058Z,101718
2017-10-13T00:55:36.323Z,101722
2017-10-13T00:58:02.909Z,101720
2017-10-13T01:00:29.186Z,101720
2017-10-13T01:02:56.175Z,101733
2017-10-13T01:05:22.415Z,101726
2017-10-13T01:07:48.683Z,101733
2017-10-13T01:10:15.718Z,101734
2017-10-13T01:12:42.692Z,101735
2017-10-13T01:15:08.970Z,101741
2017-10-13T01:17:35.474Z,101739
2017-10-13T01:20:01.762Z,101739
2017-10-13T01:22:28.765Z,101740
2017-10-13T01:24:55.074Z,101747
2017-10-13T01:27:21.329Z,101749
2017-10-13T01:29:47.577Z,101749
2017-10-13T01:32:13.862Z,101752
2017-10-13T01:34:40.117Z,101752
2017-10-13T01:37:06.382Z,101752
2017-10-13T01:39:33.432Z,101749
2017-10-13T01:42:00.434Z,101752
2017-10-13T01:44:26.719Z,101759
2017-10-13T01:46:52.982Z,101767
2017-10-13T01:49:19.245Z,101766
2017-10-13T01:51:45.798Z,101761
2017-10-13T01:54:12.889Z,101759
2017-10-13T01:56:39.170Z,101758
2017-10-13T01:59:06.591Z,101763
2017-10-13T02:01:32.854Z,101757
2017-10-13T02:03:59.878Z,101758
2017-10-13T02:06:26.195Z,101756
2017-10-13T02:08:52.462Z,101760
2017-10-13T02:11:19.452Z,101757
2017-10-13T02:13:45.724Z,101750
2017-10-13T02:16:11.962Z,101753
2017-10-13T02:18:38.982Z,101757
2017-10-13T02:21:05.295Z,101763
2017-10-13T02:23:31.560Z,101769
2017-10-13T02:25:58.601Z,101781
2017-10-13T02:28:24.890Z,101780
2017-10-13T02:30:51.143Z,101781
2017-10-13T02:33:17.423Z,101784
2017-10-13T02:35:43.769Z,101784
2017-10-13T02:38:10.007Z,101782
2017-10-13T02:40:36.285Z,101788
2017-10-13T02:43:02.569Z,101795
2017-10-13T02:45:28.838Z,101801
2017-10-13T02:47:55.069Z,101793
2017-10-13T02:50:21.590Z,101792
2017-10-13T02:52:47.861Z,101786
2017-10-13T02:55:14.135Z,101789
2017-10-13T02:57:40.407Z,101787
2017-10-13T03:00:07.405Z,101790
2017-10-13T03:02:33.642Z,101801
2017-10-13T03:04:59.897Z,101800
2017-10-13T03:07:26.874Z,101807
2017-10-13T03:09:53.098Z,101804
2017-10-13T03:12:19.363Z,101800
2017-10-13T03:14:45.583Z,101801
2017-10-13T03:17:11.814Z,101798
2017-10-13T03:19:38.363Z,101803
2017-10-13T03:22:04.626Z,101801
2017-10-13T03:24:31.610Z,101803
2017-10-13T03:26:58.179Z,101800
2017-10-13T03:29:24.425Z,101797
2017-10-13T03:31:50.658Z,101800
2017-10-13T03:34:17.651Z,101799
2017-10-13T03:36:43.886Z,101805
2017-10-13T03:39:10.122Z,101803
2017-10-13T03:41:36.377Z,101799
2017-10-13T03:44:02.657Z,101800
2017-10-13T03:46:28.943Z,101798
2017-10-13T03:48:55.255Z,101790
2017-10-13T03:51:21.540Z,101798
2017-10-13T03:53:47.782Z,101799
2017-10-13T03:56:14.063Z,101804
2017-10-13T03:58:41.061Z,101802
2017-10-13T04:01:07.341Z,101797
2017-10-13T04:03:34.331Z,101797
2017-10-13T04:06:00.597Z,101795
2017-10-13T04:08:26.891Z,101794
2017-10-13T04:10:53.125Z,101793
2017-10-13T04:13:19.389Z,101790
2017-10-13T04:15:46.413Z,101793
2017-10-13T04:18:12.641Z,101798
2017-10-13T04:20:38.919Z,101798
2017-10-13T04:23:05.932Z,101797
2017-10-13T04:25:32.191Z,101800
2017-10-13T04:27:59.170Z,101803
2017-10-13T04:30:25.463Z,101806
2017-10-13T04:32:52.450Z,101806
2017-10-13T04:35:18.677Z,101808
2017-10-13T04:37:44.981Z,101811
2017-10-13T04:40:11.215Z,101811
2017-10-13T04:42:37.445Z,101810
2017-10-13T04:45:03.720Z,101810
2017-10-13T04:47:29.950Z,101808
2017-10-13T04:49:56.186Z,101812
2017-10-13T04:52:22.455Z,101815
2017-10-13T04:54:48.691Z,101816
2017-10-13T04:57:14.926Z,101811
2017-10-13T04:59:41.188Z,101817
2017-10-13T05:02:07.441Z,101814
2017-10-13T05:04:34.458Z,101812
2017-10-13T05:07:00.735Z,101820
2017-10-13T05:09:26.983Z,101826
2017-10-13T05:11:53.217Z,101826
2017-10-13T05:14:19.510Z,101830
2017-10-13T05:16:46.490Z,101827
2017-10-13T05:19:12.729Z,101827
2017-10-13T05:21:38.987Z,101828
2017-10-13T05:24:05.201Z,101827
2017-10-13T05:26:31.455Z,101829
2017-10-13T05:28:58.482Z,101831
2017-10-13T05:31:24.723Z,101829
2017-10-13T05:33:50.957Z,101832
2017-10-13T05:36:17.204Z,101830
2017-10-13T05:38:44.171Z,101828
2017-10-13T05:41:10.410Z,101829
2017-10-13T05:43:36.870Z,101828
2017-10-13T05:46:03.114Z,101835
2017-10-13T05:48:29.344Z,101832
2017-10-13T05:50:55.573Z,101843
2017-10-13T05:53:21.803Z,101840
2017-10-13T05:55:48.078Z,101840
2017-10-13T05:58:14.655Z,101844
2017-10-13T06:00:40.918Z,101848
2017-10-13T06:03:07.933Z,101841
2017-10-13T06:05:34.160Z,101842
2017-10-13T06:08:00.436Z,101842
2017-10-13T06:10:26.817Z,101843
2017-10-13T06:12:53.070Z,101837
2017-10-13T06:15:20.075Z,101835
2017-10-13T06:17:46.394Z,101837
2017-10-13T06:20:12.625Z,101843
2017-10-13T06:22:38.866Z,101845
2017-10-13T06:25:05.130Z,101852
2017-10-13T06:27:32.114Z,101854
2017-10-13T06:29:58.683Z,101856
2017-10-13T06:32:24.941Z,101856
2017-10-13T06:34:51.931Z,101856
2017-10-13T06:37:18.223Z,101854
2017-10-13T06:39:45.225Z,101848
2017-10-13T06:42:11.496Z,101855
2017-10-13T06:44:38.528Z,101863
2017-10-13T06:47:05.586Z,101865
2017-10-13T06:49:32.605Z,101858
2017-10-13T06:51:58.921Z,101866
2017-10-13T06:54:25.187Z,101869
2017-10-13T06:56:52.212Z,101869
2017-10-13T06:59:18.506Z,101876
2017-10-13T07:01:44.758Z,101870
2017-10-13T07:04:11.029Z,101865
2017-10-13T07:06:38.085Z,101866
2017-10-13T07:09:05.071Z,101867
2017-10-13T07:11:32.150Z,101870
2017-10-13T07:13:58.446Z,101873
2017-10-13T07:16:24.709Z,101875
2017-10-13T07:18:50.994Z,101877
2017-10-13T07:21:17.285Z,101879
2017-10-13T07:23:44.305Z,101878
2017-10-13T07:26:10.609Z,101876
2017-10-13T07:28:36.861Z,101870
2017-10-13T07:31:03.115Z,101870
2017-10-13T07:33:30.130Z,101880
2017-10-13T07:35:56.378Z,101884
2017-10-13T07:38:22.612Z,101884
2017-10-13T07:40:49.938Z,101878
2017-10-13T07:43:16.186Z,101887
2017-10-13T07:45:42.423Z,101887
2017-10-13T07:48:09.752Z,101890
2017-10-13T07:50:35.993Z,101893
2017-10-13T07:53:02.239Z,101898
2017-10-13T07:55:29.266Z,101897
2017-10-13T07:57:55.557Z,101893
2017-10-13T08:00:21.807Z,101900
2017-10-13T08:02:48.091Z,101895
2017-10-13T08:05:14.336Z,101892
2017-10-13T08:07:40.574Z,101891
2017-10-13T08:10:06.852Z,101891
2017-10-13T08:12:33.830Z,101890
2017-10-13T08:15:00.059Z,101893
2017-10-13T08:17:26.333Z,101894
2017-10-13T08:19:52.572Z,101892
2017-10-13T08:22:18.830Z,101896
2017-10-13T08:24:45.849Z,101896
2017-10-13T08:27:12.109Z,101898
2017-10-13T08:29:38.389Z,101896
2017-10-13T08:32:04.667Z,101899
2017-10-13T08:34:30.929Z,101901
2017-10-13T08:36:57.181Z,101906
2017-10-13T08:39:23.472Z,101905
2017-10-13T08:41:49.750Z,101905
2017-10-13T08:44:16.006Z,101917
2017-10-13T08:46:43.105Z,101921
2017-10-13T08:49:09.333Z,101918
2017-10-13T08:51:35.582Z,101923
2017-10-13T08:54:01.843Z,101916
2017-10-13T08:56:28.092Z,101928
2017-10-13T08:58:54.451Z,101917
2017-10-13T09:01:20.726Z,101924
2017-10-13T09:03:48.269Z,101926
2017-10-13T09:06:15.305Z,101926
2017-10-13T09:08:41.600Z,101927
2017-10-13T09:11:07.960Z,101934
2017-10-13T09:13:34.232Z,101935
2017-10-13T09:16:00.488Z,101939
2017-10-13T09:18:27.051Z,101936
2017-10-13T09:20:53.380Z,101940
2017-10-13T09:23:19.671Z,101941
2017-10-13T09:25:47.076Z,101947
2017-10-13T09:28:13.379Z,101948
2017-10-13T09:30:39.685Z,101945
2017-10-13T09:33:08.019Z,101945
2017-10-13T09:35:34.361Z,101950
2017-10-13T09:38:01.375Z,101956
2017-10-13T09:40:27.713Z,101952
2017-10-13T09:42:54.399Z,101948
2017-10-13T09:45:20.757Z,101945
2017-10-13T09:47:47.063Z,101937
2017-10-13T09:50:13.540Z,101941
2017-10-13T09:52:40.040Z,101946
2017-10-13T09:55:06.298Z,101946
2017-10-13T09:57:32.575Z,101944
2017-10-13T09:59:59.274Z,101948
2017-10-13T10:02:26.093Z,101940
2017-10-13T10:04:52.621Z,101940
2017-10-13T10:07:20.255Z,101937
2017-10-13T10:09:46.501Z,101938
2017-10-13T10:12:12.766Z,101937
2017-10-13T10:14:39.585Z,101934
2017-10-13T10:17:06.401Z,101929
2017-10-13T10:19:32.952Z,101923
2017-10-13T10:22:00.237Z,101931
2017-10-13T10:24:27.909Z,101931
2017-10-13T10:26:54.189Z,101933
2017-10-13T10:29:20.870Z,101928
2017-10-13T10:31:47.627Z,101919
2017-10-13T10:34:14.996Z,101922
2017-10-13T10:36:42.083Z,101923
2017-10-13T10:39:08.388Z,101924
2017-10-13T10:41:34.607Z,101928
2017-10-13T10:44:01.644Z,101928
2017-10-13T10:46:28.679Z,101923
2017-10-13T10:48:55.843Z,101924
2017-10-13T10:51:23.545Z,101930
2017-10-13T10:53:50.456Z,101929
2017-10-13T10:56:17.028Z,101932
2017-10-13T10:58:43.877Z,101934
2017-10-13T11:01:10.994Z,101934
2017-10-13T11:03:37.547Z,101931
2017-10-13T11:06:04.127Z,101925
2017-10-13T11:08:30.436Z,101921
2017-10-13T11:10:56.912Z,101921
2017-10-13T11:13:24.018Z,101916
2017-10-13T11:15:51.780Z,101919
2017-10-13T11:18:18.303Z,101916
2017-10-13T11:20:45.199Z,101918
2017-10-13T11:23:11.670Z,101920
2017-10-13T11:25:39.142Z,101921
2017-10-13T11:28:05.558Z,101916
2017-10-13T11:30:31.902Z,101914
2017-10-13T11:32:58.343Z,101912
2017-10-13T11:35:24.717Z,101909
2017-10-13T11:37:51.844Z,101907
2017-10-13T11:40:19.009Z,101905
2017-10-13T11:42:46.534Z,101911
2017-10-13T11:45:13.047Z,101899
2017-10-13T11:47:40.151Z,101904
2017-10-13T11:50:08.008Z,101905
2017-10-13T11:52:34.472Z,101909
2017-10-13T11:55:01.907Z,101897
2017-10-13T11:57:29.016Z,101898
2017-10-13T11:59:56.637Z,101901
2017-10-13T12:02:24.124Z,101897
2017-10-13T12:04:50.637Z,101905
2017-10-13T12:07:17.085Z,101911
2017-10-13T12:09:43.435Z,101906
2017-10-13T12:12:11.164Z,101909
2017-10-13T12:14:37.684Z,101904
2017-10-13T12:17:04.168Z,101899
2017-10-13T12:19:30.401Z,101904
2017-10-13T12:21:56.629Z,101903
2017-10-13T12:24:22.877Z,101891
2017-10-13T12:26:49.099Z,101894
2017-10-13T12:29:15.325Z,101902
2017-10-13T12:31:41.615Z,101901
2017-10-13T12:34:07.978Z,101904
2017-10-13T12:36:34.210Z,101904
2017-10-13T12:39:00.637Z,101902
2017-10-13T12:41:26.870Z,101896
2017-10-13T12:43:53.115Z,101903
2017-10-13T12:46:19.357Z,101903
2017-10-13T12:48:46.342Z,101906
2017-10-13T12:51:12.570Z,101903
2017-10-13T12:53:39.099Z,101906
2017-10-13T12:56:05.368Z,101903
2017-10-13T12:58:31.615Z,101906
2017-10-13T13:00:58.906Z,101905
2017-10-13T13:03:25.140Z,101900
2017-10-13T13:05:51.378Z,101899
2017-10-13T13:08:17.652Z,101898
2017-10-13T13:10:44.625Z,101895
2017-10-13T13:13:10.869Z,101891
2017-10-13T13:15:37.329Z,101893
2017-10-13T13:18:03.571Z,101894
2017-10-13T13:20:29.794Z,101892
2017-10-13T13:22:56.425Z,101891
2017-10-13T13:25:22.672Z,101893
2017-10-13T13:27:48.901Z,101895
2017-10-13T13:30:15.172Z,101901
2017-10-13T13:32:41.394Z,101907
2017-10-13T13:35:07.750Z,101904
2017-10-13T13:37:33.969Z,101900
2017-10-13T13:40:00.199Z,101901
2017-10-13T13:42:26.485Z,101902
2017-10-13T13:44:53.454Z,101908
2017-10-13T13:47:19.683Z,101907
2017-10-13T13:49:45.933Z,101899
2017-10-13T13:52:12.167Z,101909
2017-10-13T13:54:38.395Z,101903
2017-10-13T13:57:04.678Z,101899
2017-10-13T13:59:31.677Z,101899
2017-10-13T14:01:57.912Z,101904
2017-10-13T14:04:24.266Z,101905
2017-10-13T14:06:50.493Z,101904
2017-10-13T14:09:16.716Z,101907
2017-10-13T14:11:42.978Z,101906
2017-10-13T14:14:09.225Z,101899
2017-10-13T14:16:35.456Z,101903
2017-10-13T14:19:01.722Z,101897
2017-10-13T14:21:27.949Z,101895
2017-10-13T14:23:54.183Z,101894
2017-10-13T14:26:20.433Z,101894
2017-10-13T14:28:47.403Z,101890
2017-10-13T14:31:13.639Z,101888
2017-10-13T14:33:39.934Z,101887
2017-10-13T14:36:07.222Z,101880
2017-10-13T14:38:33.470Z,101879
2017-10-13T14:40:59.742Z,101879
2017-10-13T14:43:26.720Z,101881
2017-10-13T14:45:52.985Z,101885
2017-10-13T14:48:19.218Z,101883
2017-10-13T14:50:45.494Z,101880
2017-10-13T14:53:11.871Z,101882
2017-10-13T14:55:38.120Z,101890
2017-10-13T14:58:04.430Z,101889
2017-10-13T15:00:30.705Z,101895
2017-10-13T15:02:57.707Z,101890
2017-10-13T15:05:23.958Z,101896
2017-10-13T15:07:50.221Z,101896
2017-10-13T15:10:16.444Z,101897
2017-10-13T15:12:42.671Z,101901
2017-10-13T15:15:08.961Z,101901
2017-10-13T15:17:35.185Z,101904
2017-10-13T15:20:01.423Z,101900
2017-10-13T15:22:27.686Z,101903
2017-10-13T15:24:59.993Z,101901
2017-10-13T15:27:32.387Z,101903
2017-10-13T15:30:04.774Z,101896
2017-10-13T15:32:37.905Z,101894
2017-10-13T15:35:10.249Z,101899
2017-10-13T15:37:37.269Z,101896
2017-10-13T15:40:09.627Z,101897
2017-10-13T15:42:41.964Z,101894
2017-10-13T15:45:08.222Z,101897
2017-10-13T15:47:40.562Z,101900
2017-10-13T15:50:12.965Z,101902
2017-10-13T15:52:39.214Z,101907
2017-10-13T15:55:05.445Z,101907
2017-10-13T15:57:31.962Z,101908
2017-10-13T15:59:58.193Z,101908
2017-10-13T16:02:24.425Z,101909
2017-10-13T16:04:50.693Z,101913
2017-10-13T16:07:17.675Z,101909
2017-10-13T16:09:43.902Z,101907
2017-10-13T16:12:10.160Z,101913
2017-10-13T16:14:36.397Z,101907
2017-10-13T16:17:02.631Z,101905
2017-10-13T16:19:28.975Z,101907
2017-10-13T16:21:55.937Z,101906
2017-10-13T16:24:22.178Z,101908
2017-10-13T16:26:48.457Z,101902
2017-10-13T16:29:14.690Z,101898
2017-10-13T16:31:41.678Z,101895
2017-10-13T16:34:08.250Z,101892
2017-10-13T16:36:34.478Z,101886
2017-10-13T16:39:00.742Z,101877
2017-10-13T16:41:27.758Z,101878
2017-10-13T16:43:54.006Z,101877
2017-10-13T16:46:20.246Z,101884
2017-10-13T16:48:47.213Z,101882
2017-10-13T16:51:13.481Z,101889
2017-10-13T16:53:39.858Z,101886
2017-10-13T16:56:06.846Z,101892
2017-10-13T16:58:33.083Z,101888
2017-10-13T17:01:00.342Z,101890
2017-10-13T17:03:26.586Z,101895
2017-10-13T17:05:52.814Z,101893
2017-10-13T17:08:19.073Z,101893
2017-10-13T17:10:46.063Z,101894
2017-10-13T17:13:12.297Z,101895
2017-10-13T17:15:38.729Z,101900
2017-10-13T17:18:04.989Z,101899
2017-10-13T17:20:31.983Z,101898
2017-10-13T17:22:58.258Z,101893
2017-10-13T17:25:24.514Z,101892
2017-10-13T17:27:50.764Z,101897
2017-10-13T17:30:17.034Z,101900
2017-10-13T17:32:43.266Z,101905
2017-10-13T17:35:09.514Z,101907
2017-10-13T17:37:36.562Z,101904
2017-10-13T17:40:03.578Z,101910
2017-10-13T17:42:29.822Z,101907
2017-10-13T17:44:56.113Z,101914
2017-10-13T17:47:22.338Z,101917
2017-10-13T17:49:48.571Z,101903
2017-10-13T17:52:14.829Z,101907
2017-10-13T17:54:41.065Z,101913
2017-10-13T17:57:07.303Z,101912
2017-10-13T17:59:34.518Z,101910
2017-10-13T18:02:00.778Z,101911
2017-10-13T18:04:27.778Z,101910
2017-10-13T18:06:54.040Z,101911
2017-10-13T18:09:20.326Z,101914
2017-10-13T18:11:46.584Z,101911
2017-10-13T18:14:12.858Z,101911
2017-10-13T18:16:39.835Z,101908
2017-10-13T18:19:06.062Z,101912
2017-10-13T18:21:32.328Z,101909
2017-10-13T18:23:58.564Z,101907
2017-10-13T18:26:24.838Z,101910
2017-10-13T18:28:51.098Z,101905
2017-10-13T18:31:17.347Z,101899
2017-10-13T18:33:43.622Z,101899
2017-10-13T18:36:10.090Z,101894
2017-10-13T18:38:36.350Z,101900
2017-10-13T18:41:03.322Z,101900
2017-10-13T18:43:29.620Z,101895
2017-10-13T18:45:56.601Z,101894
2017-10-13T18:48:22.841Z,101894
2017-10-13T18:50:49.294Z,101892
2017-10-13T18:53:15.537Z,101893
2017-10-13T18:55:41.780Z,101891
2017-10-13T18:58:08.059Z,101893
2017-10-13T19:00:34.335Z,101898
2017-10-13T19:03:00.578Z,101900
2017-10-13T19:05:27.710Z,101905
2017-10-13T19:07:53.947Z,101906
2017-10-13T19:10:20.925Z,101898
2017-10-13T19:12:47.289Z,101900
2017-10-13T19:15:13.543Z,101902
2017-10-13T19:17:39.775Z,101897
2017-10-13T19:20:06.078Z,101898
2017-10-13T19:22:32.366Z,101896
2017-10-13T19:24:58.616Z,101897
2017-10-13T19:27:24.926Z,101899
2017-10-13T19:29:51.190Z,101897
2017-10-13T19:32:17.429Z,101896
2017-10-13T19:34:43.694Z,101889
2017-10-13T19:37:10.673Z,101893
2017-10-13T19:39:36.899Z,101895
2017-10-13T19:42:03.151Z,101893
2017-10-13T19:44:29.406Z,101896
2017-10-13T19:46:55.635Z,101900
2017-10-13T19:49:22.186Z,101897
2017-10-13T19:51:49.191Z,101904
2017-10-13T19:54:15.431Z,101896
2017-10-13T19:56:41.732Z,101897
2017-10-13T19:59:07.971Z,101896
2017-10-13T20:01:34.218Z,101898
2017-10-13T20:04:00.649Z,101898
2017-10-13T20:06:26.897Z,101902
2017-10-13T20:08:53.909Z,101903
2017-10-13T20:11:20.566Z,101901
2017-10-13T20:13:46.851Z,101900
2017-10-13T20:16:13.138Z,101899
2017-10-13T20:18:40.139Z,101904
2017-10-13T20:21:06.416Z,101903
2017-10-13T20:23:33.463Z,101899
2017-10-13T20:26:00.476Z,101898
2017-10-13T20:28:26.742Z,101900
2017-10-13T20:30:53.963Z,101900
2017-10-13T20:33:20.213Z,101899
2017-10-13T20:35:46.463Z,101895
2017-10-13T20:38:13.457Z,101894
2017-10-13T20:40:39.683Z,101892
2017-10-13T20:43:06.263Z,101887
2017-10-13T20:45:33.309Z,101890
2017-10-13T20:48:00.278Z,101882
2017-10-13T20:50:26.517Z,101879
2017-10-13T20:52:52.982Z,101882
2017-10-13T20:55:19.272Z,101882
2017-10-13T20:57:45.498Z,101875
2017-10-13T21:00:11.754Z,101881
2017-10-13T21:02:37.992Z,101884
2017-10-13T21:05:04.223Z,101884
2017-10-13T21:07:30.486Z,101885
2017-10-13T21:09:57.449Z,101883
2017-10-13T21:12:23.678Z,101880
2017-10-13T21:14:50.194Z,101886
2017-10-13T21:17:17.171Z,101887
2017-10-13T21:19:43.391Z,101881
2017-10-13T21:22:09.682Z,101886
2017-10-13T21:24:35.963Z,101886
2017-10-13T21:27:02.199Z,101879
2017-10-13T21:29:29.477Z,101885
2017-10-13T21:31:55.721Z,101882
2017-10-13T21:34:21.963Z,101886
2017-10-13T21:36:48.979Z,101884
2017-10-13T21:39:15.222Z,101888
2017-10-13T21:41:41.442Z,101885
2017-10-13T21:44:07.714Z,101891
2017-10-13T21:46:33.944Z,101891
2017-10-13T21:49:00.174Z,101882
2017-10-13T21:51:26.449Z,101889
2017-10-13T21:53:52.711Z,101889
2017-10-13T21:56:19.717Z,101887
2017-10-13T21:58:45.991Z,101890
2017-10-13T22:01:12.960Z,101889
2017-10-13T22:03:39.227Z,101888
2017-10-13T22:06:05.499Z,101889
2017-10-13T22:08:32.475Z,101886
2017-10-13T22:10:58.979Z,101890
2017-10-13T22:13:25.975Z,101886
2017-10-13T22:15:52.951Z,101888
2017-10-13T22:18:19.174Z,101886
2017-10-13T22:20:45.791Z,101886
2017-10-13T22:23:12.016Z,101890
2017-10-13T22:25:38.245Z,101887
2017-10-13T22:28:04.675Z,101883
2017-10-13T22:30:30.894Z,101883
2017-10-13T22:32:57.118Z,101889
2017-10-13T22:35:23.380Z,101887
2017-10-13T22:37:49.622Z,101889
2017-10-13T22:40:16.670Z,101889
2017-10-13T22:42:43.657Z,101892
2017-10-13T22:45:09.882Z,101889
2017-10-13T22:47:36.115Z,101891
2017-10-13T22:50:02.574Z,101892
2017-10-13T22:52:28.825Z,101892
2017-10-13T22:54:55.826Z,101888
2017-10-13T22:57:22.106Z,101893
2017-10-13T22:59:49.097Z,101898
2017-10-13T23:02:15.343Z,101893
2017-10-13T23:04:41.881Z,101890
2017-10-13T23:07:08.119Z,101895
2017-10-13T23:09:34.364Z,101899
2017-10-13T23:12:01.692Z,101902
2017-10-13T23:14:27.941Z,101896
2017-10-13T23:16:54.210Z,101906
2017-10-13T23:19:20.466Z,101903
2017-10-13T23:21:46.694Z,101901
2017-10-13T23:24:12.922Z,101909
2017-10-13T23:26:39.473Z,101904
2017-10-13T23:29:05.723Z,101906
2017-10-13T23:31:31.945Z,101909
2017-10-13T23:33:58.194Z,101906
2017-10-13T23:36:25.158Z,101903
2017-10-13T23:38:51.393Z,101901
2017-10-13T23:41:17.967Z,101899
2017-10-13T23:43:44.202Z,101895
2017-10-13T23:46:10.443Z,101897
2017-10-13T23:48:36.866Z,101895
2017-10-13T23:51:03.110Z,101893
2017-10-13T23:53:30.089Z,101893
2017-10-13T23:55:56.338Z,101887
2017-10-13T23:58:22.580Z,101886
